Accueil
METAR-TAF:

METAR-TAF

Aéroports :

Kiel, Allemagne

latitude: 54-23N, longitude: 010-10E, altitude: 31 m

Observation

Le bulletin a été fait il y a 16 minutes, à 15:50 UTC
Vent 8 kt de nord-est
Température 22°C
Humidité 41%
Pression 1015 hPa
Visibilité 10 km ou plus
pas de nuages en-dessous de 1500 mètres et pas de cumulonimbus.

METAR: EDHK 021550Z 05008KT CAVOK 22/08 Q1015

Heure: 18:06 (16:06 UTC)

Prévision

Le bulletin a été fait il y a 2 heures et 6 minutes, à 14:00 UTC
Prévision valable du 02 à 15 UTC au 02 à 18 UTC
Vent 6 kt de nord-est
Visibilité 10 km ou plus
pas de nuages en-dessous de 1500 mètres et pas de cumulonimbus.

TAF: EDHK 021400Z 0215/0218 05006KT CAVOK

Observations et prévisions météorologiques de plus de 4000 aéroports (messages METAR et TAF).

Les stations disponibles sont représentées par des disques jaunes et rouges sur la carte.

Passer la souris dessus pour voir le nom de la station.

Cliquer dessus pour voir les observations et prévisions météorologiques.

Pour changer de carte: cliquez sur les boutons verts avec une croix noire pour zoomer, sur le bouton vert avec un tiret pour effectuer un zoom arrière, ou sur les flèches vertes pour les cartes adjacentes.


METAR-TAF: